sensor_id;sensor_type;location;lat;lon;timestamp;P1;durP1;ratioP1;P2;durP2;ratioP2
73850;SDS011;62190;51.548;5.688;2023-04-03T00:01:28;14.53;;;9.08;;
73850;SDS011;62190;51.548;5.688;2023-04-03T00:03:56;18.42;;;9.95;;
73850;SDS011;62190;51.548;5.688;2023-04-03T00:06:23;18.10;;;9.80;;
73850;SDS011;62190;51.548;5.688;2023-04-03T00:08:51;14.28;;;8.88;;
73850;SDS011;62190;51.548;5.688;2023-04-03T00:11:19;17.42;;;11.12;;
73850;SDS011;62190;51.548;5.688;2023-04-03T00:13:47;24.75;;;11.40;;
73850;SDS011;62190;51.548;5.688;2023-04-03T00:16:14;20.88;;;13.08;;
73850;SDS011;62190;51.548;5.688;2023-04-03T00:18:44;28.57;;;15.30;;
73850;SDS011;62190;51.548;5.688;2023-04-03T00:21:13;30.60;;;15.68;;
73850;SDS011;62190;51.548;5.688;2023-04-03T00:23:41;32.23;;;16.42;;
73850;SDS011;62190;51.548;5.688;2023-04-03T00:26:08;28.38;;;15.10;;
73850;SDS011;62190;51.548;5.688;2023-04-03T00:28:37;26.20;;;14.73;;
73850;SDS011;62190;51.548;5.688;2023-04-03T00:31:05;33.23;;;17.20;;
73850;SDS011;62190;51.548;5.688;2023-04-03T00:33:32;30.35;;;16.60;;
73850;SDS011;62190;51.548;5.688;2023-04-03T00:36:04;29.45;;;15.23;;
73850;SDS011;62190;51.548;5.688;2023-04-03T00:38:33;23.83;;;14.45;;
73850;SDS011;62190;51.548;5.688;2023-04-03T00:41:00;26.60;;;14.83;;
73850;SDS011;62190;51.548;5.688;2023-04-03T00:43:28;29.23;;;15.80;;
73850;SDS011;62190;51.548;5.688;2023-04-03T00:45:56;27.95;;;16.87;;
73850;SDS011;62190;51.548;5.688;2023-04-03T00:48:31;26.27;;;16.42;;
73850;SDS011;62190;51.548;5.688;2023-04-03T00:51:03;27.87;;;15.58;;
73850;SDS011;62190;51.548;5.688;2023-04-03T00:53:40;29.57;;;16.62;;
73850;SDS011;62190;51.548;5.688;2023-04-03T00:56:05;28.15;;;15.15;;
73850;SDS011;62190;51.548;5.688;2023-04-03T00:58:41;27.17;;;15.78;;
73850;SDS011;62190;51.548;5.688;2023-04-03T01:01:06;27.67;;;16.00;;
73850;SDS011;62190;51.548;5.688;2023-04-03T01:06:09;27.55;;;14.63;;
73850;SDS011;62190;51.548;5.688;2023-04-03T01:08:37;24.87;;;13.75;;
73850;SDS011;62190;51.548;5.688;2023-04-03T01:11:05;24.50;;;14.53;;
73850;SDS011;62190;51.548;5.688;2023-04-03T01:13:32;27.25;;;15.38;;
73850;SDS011;62190;51.548;5.688;2023-04-03T01:16:01;27.93;;;15.32;;
73850;SDS011;62190;51.548;5.688;2023-04-03T01:18:30;33.58;;;17.15;;
73850;SDS011;62190;51.548;5.688;2023-04-03T01:26:42;33.95;;;15.95;;
73850;SDS011;62190;51.548;5.688;2023-04-03T01:29:09;30.10;;;15.53;;
73850;SDS011;62190;51.548;5.688;2023-04-03T01:31:45;27.95;;;17.20;;
73850;SDS011;62190;51.548;5.688;2023-04-03T01:34:22;27.02;;;15.32;;
73850;SDS011;62190;51.548;5.688;2023-04-03T01:36:52;22.90;;;13.72;;
73850;SDS011;62190;51.548;5.688;2023-04-03T01:39:21;22.62;;;14.00;;
73850;SDS011;62190;51.548;5.688;2023-04-03T01:41:48;23.38;;;14.10;;
73850;SDS011;62190;51.548;5.688;2023-04-03T01:44:19;22.37;;;13.32;;
73850;SDS011;62190;51.548;5.688;2023-04-03T01:46:46;25.27;;;12.43;;
73850;SDS011;62190;51.548;5.688;2023-04-03T01:49:13;18.90;;;12.37;;
73850;SDS011;62190;51.548;5.688;2023-04-03T01:51:41;23.65;;;11.90;;
73850;SDS011;62190;51.548;5.688;2023-04-03T01:54:08;19.07;;;11.28;;
73850;SDS011;62190;51.548;5.688;2023-04-03T01:56:36;22.65;;;12.37;;
73850;SDS011;62190;51.548;5.688;2023-04-03T01:59:06;18.25;;;11.65;;
73850;SDS011;62190;51.548;5.688;2023-04-03T02:01:33;18.02;;;10.68;;
73850;SDS011;62190;51.548;5.688;2023-04-03T02:04:02;17.73;;;10.18;;
73850;SDS011;62190;51.548;5.688;2023-04-03T02:06:29;17.30;;;10.15;;
73850;SDS011;62190;51.548;5.688;2023-04-03T02:08:58;16.00;;;10.50;;
73850;SDS011;62190;51.548;5.688;2023-04-03T02:11:27;15.05;;;8.95;;
73850;SDS011;62190;51.548;5.688;2023-04-03T02:13:54;16.00;;;9.60;;
73850;SDS011;62190;51.548;5.688;2023-04-03T02:18:49;17.42;;;8.70;;
73850;SDS011;62190;51.548;5.688;2023-04-03T02:21:19;16.42;;;8.30;;
73850;SDS011;62190;51.548;5.688;2023-04-03T02:23:46;11.00;;;6.95;;
73850;SDS011;62190;51.548;5.688;2023-04-03T02:26:16;12.60;;;7.33;;
73850;SDS011;62190;51.548;5.688;2023-04-03T02:28:45;13.15;;;7.10;;
73850;SDS011;62190;51.548;5.688;2023-04-03T02:31:13;14.47;;;6.60;;
73850;SDS011;62190;51.548;5.688;2023-04-03T02:33:42;12.45;;;6.97;;
73850;SDS011;62190;51.548;5.688;2023-04-03T02:36:11;9.93;;;6.83;;
73850;SDS011;62190;51.548;5.688;2023-04-03T02:38:39;14.33;;;7.35;;
73850;SDS011;62190;51.548;5.688;2023-04-03T02:41:08;12.50;;;6.95;;
73850;SDS011;62190;51.548;5.688;2023-04-03T02:43:37;12.63;;;6.45;;
73850;SDS011;62190;51.548;5.688;2023-04-03T02:46:05;10.78;;;6.95;;
73850;SDS011;62190;51.548;5.688;2023-04-03T02:48:33;8.53;;;6.25;;
73850;SDS011;62190;51.548;5.688;2023-04-03T02:51:01;11.57;;;5.85;;
73850;SDS011;62190;51.548;5.688;2023-04-03T02:53:28;8.28;;;5.90;;
73850;SDS011;62190;51.548;5.688;2023-04-03T02:55:58;8.73;;;5.33;;
73850;SDS011;62190;51.548;5.688;2023-04-03T02:58:30;7.80;;;5.40;;
73850;SDS011;62190;51.548;5.688;2023-04-03T03:11:54;8.63;;;4.78;;
73850;SDS011;62190;51.548;5.688;2023-04-03T03:14:40;13.05;;;4.90;;
73850;SDS011;62190;51.548;5.688;2023-04-03T03:25:31;7.08;;;4.30;;
73850;SDS011;62190;51.548;5.688;2023-04-03T03:28:10;8.60;;;4.42;;
73850;SDS011;62190;51.548;5.688;2023-04-03T03:30:44;8.43;;;4.15;;
73850;SDS011;62190;51.548;5.688;2023-04-03T03:33:27;8.98;;;4.85;;
73850;SDS011;62190;51.548;5.688;2023-04-03T03:36:00;8.48;;;4.20;;
73850;SDS011;62190;51.548;5.688;2023-04-03T03:38:29;6.95;;;4.22;;
73850;SDS011;62190;51.548;5.688;2023-04-03T03:41:12;8.58;;;4.47;;
73850;SDS011;62190;51.548;5.688;2023-04-03T03:43:39;8.73;;;4.05;;
73850;SDS011;62190;51.548;5.688;2023-04-03T03:46:11;6.05;;;4.17;;
73850;SDS011;62190;51.548;5.688;2023-04-03T03:48:42;5.50;;;2.98;;
73850;SDS011;62190;51.548;5.688;2023-04-03T03:51:18;8.83;;;4.10;;
73850;SDS011;62190;51.548;5.688;2023-04-03T03:53:47;10.18;;;4.00;;
73850;SDS011;62190;51.548;5.688;2023-04-03T03:56:22;7.70;;;3.65;;
73850;SDS011;62190;51.548;5.688;2023-04-03T03:58:48;6.90;;;3.95;;
73850;SDS011;62190;51.548;5.688;2023-04-03T04:01:15;7.50;;;4.15;;
73850;SDS011;62190;51.548;5.688;2023-04-03T04:03:43;9.35;;;4.62;;
73850;SDS011;62190;51.548;5.688;2023-04-03T04:06:12;6.65;;;3.87;;
73850;SDS011;62190;51.548;5.688;2023-04-03T04:08:42;7.70;;;3.87;;
73850;SDS011;62190;51.548;5.688;2023-04-03T04:11:13;11.33;;;4.03;;
73850;SDS011;62190;51.548;5.688;2023-04-03T04:13:42;10.72;;;4.67;;
73850;SDS011;62190;51.548;5.688;2023-04-03T04:16:10;9.90;;;3.72;;
73850;SDS011;62190;51.548;5.688;2023-04-03T04:18:41;8.10;;;4.22;;
73850;SDS011;62190;51.548;5.688;2023-04-03T04:21:08;8.60;;;3.80;;
73850;SDS011;62190;51.548;5.688;2023-04-03T04:23:35;5.47;;;3.17;;
73850;SDS011;62190;51.548;5.688;2023-04-03T04:26:04;6.00;;;3.83;;
73850;SDS011;62190;51.548;5.688;2023-04-03T04:28:32;7.53;;;3.70;;
73850;SDS011;62190;51.548;5.688;2023-04-03T04:30:59;8.45;;;4.10;;
73850;SDS011;62190;51.548;5.688;2023-04-03T04:33:29;8.08;;;3.85;;
73850;SDS011;62190;51.548;5.688;2023-04-03T04:35:58;8.88;;;3.52;;
73850;SDS011;62190;51.548;5.688;2023-04-03T04:38:27;6.97;;;3.75;;
73850;SDS011;62190;51.548;5.688;2023-04-03T04:40:54;6.25;;;3.40;;
73850;SDS011;62190;51.548;5.688;2023-04-03T04:43:21;5.30;;;3.72;;
73850;SDS011;62190;51.548;5.688;2023-04-03T04:46:04;8.80;;;3.58;;
73850;SDS011;62190;51.548;5.688;2023-04-03T04:48:30;7.83;;;3.45;;
73850;SDS011;62190;51.548;5.688;2023-04-03T04:50:57;7.92;;;4.10;;
73850;SDS011;62190;51.548;5.688;2023-04-03T04:53:25;5.25;;;3.55;;
73850;SDS011;62190;51.548;5.688;2023-04-03T04:55:52;7.25;;;3.22;;
73850;SDS011;62190;51.548;5.688;2023-04-03T04:58:20;7.17;;;3.15;;
73850;SDS011;62190;51.548;5.688;2023-04-03T05:01:03;8.28;;;3.45;;
73850;SDS011;62190;51.548;5.688;2023-04-03T05:03:28;10.03;;;3.45;;
73850;SDS011;62190;51.548;5.688;2023-04-03T05:05:55;9.70;;;4.10;;
73850;SDS011;62190;51.548;5.688;2023-04-03T05:08:23;7.67;;;3.75;;
73850;SDS011;62190;51.548;5.688;2023-04-03T05:10:50;6.22;;;3.40;;
73850;SDS011;62190;51.548;5.688;2023-04-03T05:13:20;4.85;;;3.27;;
73850;SDS011;62190;51.548;5.688;2023-04-03T05:15:47;8.05;;;3.27;;
73850;SDS011;62190;51.548;5.688;2023-04-03T05:18:19;7.80;;;4.35;;
73850;SDS011;62190;51.548;5.688;2023-04-03T05:20:49;9.10;;;3.22;;
73850;SDS011;62190;51.548;5.688;2023-04-03T05:23:17;5.87;;;3.52;;
73850;SDS011;62190;51.548;5.688;2023-04-03T05:25:45;6.08;;;3.27;;
73850;SDS011;62190;51.548;5.688;2023-04-03T05:28:14;5.08;;;2.40;;
73850;SDS011;62190;51.548;5.688;2023-04-03T05:30:43;7.62;;;3.52;;
73850;SDS011;62190;51.548;5.688;2023-04-03T05:33:11;7.45;;;2.65;;
73850;SDS011;62190;51.548;5.688;2023-04-03T05:35:39;8.20;;;3.15;;
73850;SDS011;62190;51.548;5.688;2023-04-03T05:38:10;6.92;;;2.98;;
73850;SDS011;62190;51.548;5.688;2023-04-03T05:40:37;11.35;;;3.15;;
73850;SDS011;62190;51.548;5.688;2023-04-03T05:43:05;5.25;;;2.67;;
73850;SDS011;62190;51.548;5.688;2023-04-03T05:45:32;7.78;;;3.33;;
73850;SDS011;62190;51.548;5.688;2023-04-03T05:47:59;5.25;;;2.80;;
73850;SDS011;62190;51.548;5.688;2023-04-03T05:50:27;6.55;;;3.08;;
73850;SDS011;62190;51.548;5.688;2023-04-03T05:52:56;5.78;;;2.35;;
73850;SDS011;62190;51.548;5.688;2023-04-03T05:55:24;3.42;;;2.02;;
73850;SDS011;62190;51.548;5.688;2023-04-03T05:57:51;5.35;;;3.10;;
73850;SDS011;62190;51.548;5.688;2023-04-03T06:00:22;7.33;;;2.52;;
73850;SDS011;62190;51.548;5.688;2023-04-03T06:02:50;10.23;;;2.52;;
73850;SDS011;62190;51.548;5.688;2023-04-03T06:05:21;4.40;;;1.80;;
73850;SDS011;62190;51.548;5.688;2023-04-03T06:07:49;5.83;;;2.17;;
73850;SDS011;62190;51.548;5.688;2023-04-03T06:10:16;6.10;;;1.67;;
73850;SDS011;62190;51.548;5.688;2023-04-03T06:12:45;5.80;;;2.15;;
73850;SDS011;62190;51.548;5.688;2023-04-03T06:15:12;3.05;;;1.62;;
73850;SDS011;62190;51.548;5.688;2023-04-03T06:17:41;5.80;;;1.40;;
73850;SDS011;62190;51.548;5.688;2023-04-03T06:20:09;4.05;;;1.30;;
73850;SDS011;62190;51.548;5.688;2023-04-03T06:22:37;3.75;;;1.45;;
73850;SDS011;62190;51.548;5.688;2023-04-03T06:25:05;6.95;;;1.70;;
73850;SDS011;62190;51.548;5.688;2023-04-03T06:27:32;2.60;;;1.47;;
73850;SDS011;62190;51.548;5.688;2023-04-03T06:30:00;3.47;;;1.72;;
73850;SDS011;62190;51.548;5.688;2023-04-03T06:32:27;4.47;;;1.80;;
73850;SDS011;62190;51.548;5.688;2023-04-03T06:34:55;3.35;;;1.20;;
73850;SDS011;62190;51.548;5.688;2023-04-03T06:37:24;4.00;;;1.72;;
73850;SDS011;62190;51.548;5.688;2023-04-03T06:39:53;6.35;;;1.45;;
73850;SDS011;62190;51.548;5.688;2023-04-03T06:42:21;6.78;;;1.85;;
73850;SDS011;62190;51.548;5.688;2023-04-03T06:44:49;5.75;;;1.98;;
73850;SDS011;62190;51.548;5.688;2023-04-03T06:47:17;3.10;;;1.40;;
73850;SDS011;62190;51.548;5.688;2023-04-03T06:49:44;5.45;;;1.80;;
73850;SDS011;62190;51.548;5.688;2023-04-03T06:52:12;4.40;;;1.10;;
73850;SDS011;62190;51.548;5.688;2023-04-03T06:54:39;3.35;;;1.62;;
73850;SDS011;62190;51.548;5.688;2023-04-03T06:57:07;5.75;;;2.02;;
73850;SDS011;62190;51.548;5.688;2023-04-03T06:59:36;5.15;;;1.37;;
73850;SDS011;62190;51.548;5.688;2023-04-03T07:02:03;4.22;;;1.45;;
73850;SDS011;62190;51.548;5.688;2023-04-03T07:04:31;3.58;;;1.30;;
73850;SDS011;62190;51.548;5.688;2023-04-03T07:06:58;3.87;;;1.17;;
73850;SDS011;62190;51.548;5.688;2023-04-03T07:09:25;4.72;;;1.45;;
73850;SDS011;62190;51.548;5.688;2023-04-03T07:11:58;4.80;;;1.45;;
73850;SDS011;62190;51.548;5.688;2023-04-03T07:14:26;8.08;;;1.70;;
73850;SDS011;62190;51.548;5.688;2023-04-03T07:16:53;3.58;;;1.60;;
73850;SDS011;62190;51.548;5.688;2023-04-03T07:19:20;3.37;;;1.00;;
73850;SDS011;62190;51.548;5.688;2023-04-03T07:21:49;7.33;;;1.72;;
73850;SDS011;62190;51.548;5.688;2023-04-03T07:24:17;5.08;;;1.50;;
73850;SDS011;62190;51.548;5.688;2023-04-03T07:26:55;3.70;;;1.25;;
73850;SDS011;62190;51.548;5.688;2023-04-03T07:29:25;3.67;;;1.20;;
73850;SDS011;62190;51.548;5.688;2023-04-03T07:32:10;4.30;;;1.42;;
73850;SDS011;62190;51.548;5.688;2023-04-03T07:34:44;5.00;;;1.90;;
73850;SDS011;62190;51.548;5.688;2023-04-03T07:37:13;3.25;;;1.20;;
73850;SDS011;62190;51.548;5.688;2023-04-03T07:39:43;5.05;;;1.37;;
73850;SDS011;62190;51.548;5.688;2023-04-03T07:42:10;4.03;;;1.12;;
73850;SDS011;62190;51.548;5.688;2023-04-03T07:44:44;5.08;;;1.20;;
73850;SDS011;62190;51.548;5.688;2023-04-03T07:47:10;3.65;;;1.20;;
73850;SDS011;62190;51.548;5.688;2023-04-03T07:49:41;4.62;;;1.55;;
73850;SDS011;62190;51.548;5.688;2023-04-03T07:52:10;5.53;;;1.55;;
73850;SDS011;62190;51.548;5.688;2023-04-03T07:54:39;2.10;;;1.05;;
73850;SDS011;62190;51.548;5.688;2023-04-03T07:57:10;3.90;;;1.15;;
73850;SDS011;62190;51.548;5.688;2023-04-03T07:59:43;3.60;;;1.02;;
73850;SDS011;62190;51.548;5.688;2023-04-03T08:02:11;3.27;;;1.20;;
73850;SDS011;62190;51.548;5.688;2023-04-03T08:04:39;3.55;;;1.10;;
73850;SDS011;62190;51.548;5.688;2023-04-03T08:07:11;2.67;;;0.78;;
73850;SDS011;62190;51.548;5.688;2023-04-03T08:09:38;2.45;;;0.95;;
73850;SDS011;62190;51.548;5.688;2023-04-03T08:12:09;2.35;;;1.20;;
73850;SDS011;62190;51.548;5.688;2023-04-03T08:14:41;6.53;;;1.05;;
73850;SDS011;62190;51.548;5.688;2023-04-03T08:17:19;4.55;;;1.12;;
73850;SDS011;62190;51.548;5.688;2023-04-03T08:19:46;3.95;;;1.42;;
73850;SDS011;62190;51.548;5.688;2023-04-03T08:22:17;2.27;;;0.90;;
73850;SDS011;62190;51.548;5.688;2023-04-03T08:24:47;4.03;;;1.60;;
73850;SDS011;62190;51.548;5.688;2023-04-03T08:27:24;5.28;;;1.40;;
73850;SDS011;62190;51.548;5.688;2023-04-03T08:29:56;7.85;;;1.37;;
73850;SDS011;62190;51.548;5.688;2023-04-03T08:32:29;3.02;;;0.98;;
73850;SDS011;62190;51.548;5.688;2023-04-03T08:35:01;4.47;;;1.25;;
73850;SDS011;62190;51.548;5.688;2023-04-03T08:37:34;2.20;;;1.17;;
73850;SDS011;62190;51.548;5.688;2023-04-03T08:40:05;2.30;;;0.85;;
73850;SDS011;62190;51.548;5.688;2023-04-03T08:45:37;2.67;;;1.00;;
73850;SDS011;62190;51.548;5.688;2023-04-03T08:48:06;4.17;;;1.30;;
73850;SDS011;62190;51.548;5.688;2023-04-03T08:50:48;3.52;;;1.10;;
73850;SDS011;62190;51.548;5.688;2023-04-03T08:53:19;3.17;;;1.20;;
73850;SDS011;62190;51.548;5.688;2023-04-03T08:55:50;2.62;;;0.70;;
73850;SDS011;62190;51.548;5.688;2023-04-03T08:58:26;8.18;;;1.10;;
73850;SDS011;62190;51.548;5.688;2023-04-03T09:03:39;3.65;;;0.80;;
73850;SDS011;62190;51.548;5.688;2023-04-03T09:06:13;2.52;;;0.80;;
73850;SDS011;62190;51.548;5.688;2023-04-03T09:09:13;1.17;;;0.50;;
73850;SDS011;62190;51.548;5.688;2023-04-03T09:12:00;2.20;;;0.70;;
73850;SDS011;62190;51.548;5.688;2023-04-03T09:14:46;3.35;;;1.05;;
73850;SDS011;62190;51.548;5.688;2023-04-03T09:22:48;1.98;;;0.80;;
73850;SDS011;62190;51.548;5.688;2023-04-03T09:25:25;1.82;;;0.70;;
73850;SDS011;62190;51.548;5.688;2023-04-03T09:27:56;3.67;;;0.70;;
73850;SDS011;62190;51.548;5.688;2023-04-03T09:30:27;1.55;;;0.50;;
73850;SDS011;62190;51.548;5.688;2023-04-03T09:32:56;2.65;;;0.60;;
73850;SDS011;62190;51.548;5.688;2023-04-03T09:35:53;1.42;;;0.60;;
73850;SDS011;62190;51.548;5.688;2023-04-03T09:45:49;3.17;;;0.55;;
73850;SDS011;62190;51.548;5.688;2023-04-03T09:48:21;1.60;;;0.40;;
73850;SDS011;62190;51.548;5.688;2023-04-03T09:50:54;1.20;;;0.50;;
73850;SDS011;62190;51.548;5.688;2023-04-03T09:58:50;1.35;;;0.50;;
73850;SDS011;62190;51.548;5.688;2023-04-03T10:06:48;1.12;;;0.33;;
73850;SDS011;62190;51.548;5.688;2023-04-03T10:09:21;1.25;;;0.40;;
73850;SDS011;62190;51.548;5.688;2023-04-03T10:12:00;5.12;;;0.80;;
73850;SDS011;62190;51.548;5.688;2023-04-03T10:14:53;2.20;;;0.40;;
73850;SDS011;62190;51.548;5.688;2023-04-03T10:20:06;1.20;;;0.40;;
73850;SDS011;62190;51.548;5.688;2023-04-03T10:22:37;1.37;;;0.30;;
73850;SDS011;62190;51.548;5.688;2023-04-03T10:34:03;0.93;;;0.30;;
73850;SDS011;62190;51.548;5.688;2023-04-03T10:36:45;1.85;;;0.40;;
73850;SDS011;62190;51.548;5.688;2023-04-03T10:39:39;1.10;;;0.30;;
73850;SDS011;62190;51.548;5.688;2023-04-03T10:42:32;2.60;;;0.30;;
73850;SDS011;62190;51.548;5.688;2023-04-03T10:48:06;0.60;;;0.30;;
73850;SDS011;62190;51.548;5.688;2023-04-03T10:53:45;1.90;;;0.40;;
73850;SDS011;62190;51.548;5.688;2023-04-03T11:02:12;0.50;;;0.40;;
73850;SDS011;62190;51.548;5.688;2023-04-03T11:04:46;1.80;;;0.20;;
73850;SDS011;62190;51.548;5.688;2023-04-03T11:07:26;1.30;;;0.33;;
73850;SDS011;62190;51.548;5.688;2023-04-03T11:29:04;0.47;;;0.20;;
73850;SDS011;62190;51.548;5.688;2023-04-03T11:34:48;1.32;;;0.30;;
73850;SDS011;62190;51.548;5.688;2023-04-03T11:40:25;0.82;;;0.23;;
73850;SDS011;62190;51.548;5.688;2023-04-03T11:43:37;0.88;;;0.30;;
73850;SDS011;62190;51.548;5.688;2023-04-03T11:46:07;2.92;;;0.35;;
73850;SDS011;62190;51.548;5.688;2023-04-03T11:48:47;1.32;;;0.35;;
73850;SDS011;62190;51.548;5.688;2023-04-03T11:53:57;1.02;;;0.40;;
73850;SDS011;62190;51.548;5.688;2023-04-03T12:19:37;1.82;;;0.40;;
73850;SDS011;62190;51.548;5.688;2023-04-03T12:22:20;1.85;;;0.60;;
73850;SDS011;62190;51.548;5.688;2023-04-03T12:24:49;1.70;;;0.60;;
73850;SDS011;62190;51.548;5.688;2023-04-03T12:27:28;1.12;;;0.70;;
73850;SDS011;62190;51.548;5.688;2023-04-03T12:35:57;3.33;;;0.70;;
73850;SDS011;62190;51.548;5.688;2023-04-03T12:46:58;2.05;;;0.62;;
73850;SDS011;62190;51.548;5.688;2023-04-03T12:52:29;1.60;;;0.60;;
73850;SDS011;62190;51.548;5.688;2023-04-03T12:55:03;2.98;;;0.78;;
73850;SDS011;62190;51.548;5.688;2023-04-03T12:57:35;3.17;;;0.78;;
73850;SDS011;62190;51.548;5.688;2023-04-03T13:00:18;2.65;;;0.90;;
73850;SDS011;62190;51.548;5.688;2023-04-03T13:02:49;3.70;;;0.95;;
73850;SDS011;62190;51.548;5.688;2023-04-03T13:05:17;2.35;;;0.60;;
73850;SDS011;62190;51.548;5.688;2023-04-03T13:07:50;2.77;;;0.60;;
73850;SDS011;62190;51.548;5.688;2023-04-03T13:10:29;2.02;;;0.70;;
73850;SDS011;62190;51.548;5.688;2023-04-03T13:12:58;3.12;;;0.70;;
73850;SDS011;62190;51.548;5.688;2023-04-03T13:15:40;2.30;;;0.60;;
73850;SDS011;62190;51.548;5.688;2023-04-03T13:17:57;3.02;;;0.70;;
73850;SDS011;62190;51.548;5.688;2023-04-03T13:20:26;3.10;;;0.80;;
73850;SDS011;62190;51.548;5.688;2023-04-03T13:23:01;1.70;;;0.60;;
73850;SDS011;62190;51.548;5.688;2023-04-03T13:25:36;2.72;;;0.65;;
73850;SDS011;62190;51.548;5.688;2023-04-03T13:28:10;1.95;;;0.57;;
73850;SDS011;62190;51.548;5.688;2023-04-03T13:30:38;2.72;;;0.88;;
73850;SDS011;62190;51.548;5.688;2023-04-03T13:33:19;1.47;;;0.70;;
73850;SDS011;62190;51.548;5.688;2023-04-03T13:35:54;2.15;;;0.82;;
73850;SDS011;62190;51.548;5.688;2023-04-03T13:38:24;3.10;;;0.72;;
73850;SDS011;62190;51.548;5.688;2023-04-03T13:40:54;2.58;;;0.60;;
73850;SDS011;62190;51.548;5.688;2023-04-03T13:43:31;2.98;;;0.60;;
73850;SDS011;62190;51.548;5.688;2023-04-03T13:46:05;1.95;;;0.70;;
73850;SDS011;62190;51.548;5.688;2023-04-03T13:48:35;6.00;;;0.80;;
73850;SDS011;62190;51.548;5.688;2023-04-03T13:53:52;2.25;;;0.80;;
73850;SDS011;62190;51.548;5.688;2023-04-03T13:56:30;4.92;;;0.90;;
73850;SDS011;62190;51.548;5.688;2023-04-03T14:04:15;1.47;;;0.60;;
73850;SDS011;62190;51.548;5.688;2023-04-03T14:06:44;2.50;;;0.90;;
73850;SDS011;62190;51.548;5.688;2023-04-03T14:09:12;1.47;;;0.62;;
73850;SDS011;62190;51.548;5.688;2023-04-03T14:11:41;3.02;;;0.60;;
73850;SDS011;62190;51.548;5.688;2023-04-03T14:14:19;1.40;;;0.72;;
73850;SDS011;62190;51.548;5.688;2023-04-03T14:16:52;1.30;;;0.50;;
73850;SDS011;62190;51.548;5.688;2023-04-03T14:19:26;3.35;;;1.17;;
73850;SDS011;62190;51.548;5.688;2023-04-03T14:21:59;1.45;;;0.93;;
73850;SDS011;62190;51.548;5.688;2023-04-03T14:24:27;3.20;;;0.80;;
73850;SDS011;62190;51.548;5.688;2023-04-03T14:26:54;3.62;;;0.80;;
73850;SDS011;62190;51.548;5.688;2023-04-03T14:29:22;3.22;;;1.17;;
73850;SDS011;62190;51.548;5.688;2023-04-03T14:31:49;2.67;;;0.65;;
73850;SDS011;62190;51.548;5.688;2023-04-03T14:34:17;2.58;;;0.82;;
73850;SDS011;62190;51.548;5.688;2023-04-03T14:36:44;3.75;;;0.80;;
73850;SDS011;62190;51.548;5.688;2023-04-03T14:39:18;3.02;;;0.70;;
73850;SDS011;62190;51.548;5.688;2023-04-03T14:41:45;1.98;;;0.60;;
73850;SDS011;62190;51.548;5.688;2023-04-03T14:44:13;2.90;;;0.70;;
73850;SDS011;62190;51.548;5.688;2023-04-03T14:46:42;2.27;;;0.65;;
73850;SDS011;62190;51.548;5.688;2023-04-03T14:49:13;2.52;;;0.80;;
73850;SDS011;62190;51.548;5.688;2023-04-03T14:51:45;4.50;;;0.90;;
73850;SDS011;62190;51.548;5.688;2023-04-03T14:54:13;1.95;;;0.68;;
73850;SDS011;62190;51.548;5.688;2023-04-03T14:56:42;2.50;;;0.80;;
73850;SDS011;62190;51.548;5.688;2023-04-03T14:59:14;1.42;;;0.70;;
73850;SDS011;62190;51.548;5.688;2023-04-03T15:01:47;1.45;;;0.68;;
73850;SDS011;62190;51.548;5.688;2023-04-03T15:04:15;1.47;;;0.72;;
73850;SDS011;62190;51.548;5.688;2023-04-03T15:06:48;4.12;;;0.82;;
73850;SDS011;62190;51.548;5.688;2023-04-03T15:09:22;4.65;;;0.95;;
73850;SDS011;62190;51.548;5.688;2023-04-03T15:11:56;4.22;;;1.05;;
73850;SDS011;62190;51.548;5.688;2023-04-03T15:14:20;2.47;;;1.05;;
73850;SDS011;62190;51.548;5.688;2023-04-03T15:16:48;2.20;;;0.68;;
73850;SDS011;62190;51.548;5.688;2023-04-03T15:19:16;2.02;;;0.80;;
73850;SDS011;62190;51.548;5.688;2023-04-03T15:21:43;3.72;;;1.07;;
73850;SDS011;62190;51.548;5.688;2023-04-03T15:24:10;2.22;;;0.95;;
73850;SDS011;62190;51.548;5.688;2023-04-03T15:26:38;3.30;;;0.90;;
73850;SDS011;62190;51.548;5.688;2023-04-03T15:29:07;3.75;;;0.93;;
73850;SDS011;62190;51.548;5.688;2023-04-03T15:31:34;3.62;;;0.98;;
73850;SDS011;62190;51.548;5.688;2023-04-03T15:34:02;3.25;;;0.95;;
73850;SDS011;62190;51.548;5.688;2023-04-03T15:36:30;3.42;;;1.00;;
73850;SDS011;62190;51.548;5.688;2023-04-03T15:38:57;4.70;;;1.00;;
73850;SDS011;62190;51.548;5.688;2023-04-03T15:41:24;1.30;;;0.50;;
73850;SDS011;62190;51.548;5.688;2023-04-03T15:43:52;3.17;;;1.20;;
73850;SDS011;62190;51.548;5.688;2023-04-03T15:46:20;2.85;;;0.80;;
73850;SDS011;62190;51.548;5.688;2023-04-03T15:48:49;2.70;;;0.80;;
73850;SDS011;62190;51.548;5.688;2023-04-03T15:51:16;3.85;;;1.20;;
73850;SDS011;62190;51.548;5.688;2023-04-03T15:53:43;4.15;;;0.78;;
73850;SDS011;62190;51.548;5.688;2023-04-03T15:56:11;2.33;;;1.00;;
73850;SDS011;62190;51.548;5.688;2023-04-03T15:58:38;1.70;;;0.55;;
73850;SDS011;62190;51.548;5.688;2023-04-03T16:01:06;4.15;;;1.00;;
73850;SDS011;62190;51.548;5.688;2023-04-03T16:03:35;4.58;;;1.00;;
73850;SDS011;62190;51.548;5.688;2023-04-03T16:06:04;4.72;;;1.25;;
73850;SDS011;62190;51.548;5.688;2023-04-03T16:08:31;2.17;;;0.68;;
73850;SDS011;62190;51.548;5.688;2023-04-03T16:11:00;3.40;;;0.93;;
73850;SDS011;62190;51.548;5.688;2023-04-03T16:13:28;5.28;;;0.98;;
73850;SDS011;62190;51.548;5.688;2023-04-03T16:15:56;10.20;;;0.98;;
73850;SDS011;62190;51.548;5.688;2023-04-03T16:18:23;3.95;;;0.93;;
73850;SDS011;62190;51.548;5.688;2023-04-03T16:20:51;3.90;;;0.80;;
73850;SDS011;62190;51.548;5.688;2023-04-03T16:23:18;3.58;;;0.70;;
73850;SDS011;62190;51.548;5.688;2023-04-03T16:25:46;3.47;;;1.07;;
73850;SDS011;62190;51.548;5.688;2023-04-03T16:28:15;1.65;;;0.80;;
73850;SDS011;62190;51.548;5.688;2023-04-03T16:30:44;1.75;;;0.60;;
73850;SDS011;62190;51.548;5.688;2023-04-03T16:33:12;2.95;;;0.60;;
73850;SDS011;62190;51.548;5.688;2023-04-03T16:35:40;3.52;;;0.90;;
73850;SDS011;62190;51.548;5.688;2023-04-03T16:38:08;4.67;;;1.02;;
73850;SDS011;62190;51.548;5.688;2023-04-03T16:40:36;3.08;;;0.70;;
73850;SDS011;62190;51.548;5.688;2023-04-03T16:43:08;2.37;;;0.80;;
73850;SDS011;62190;51.548;5.688;2023-04-03T16:45:42;3.62;;;0.95;;
73850;SDS011;62190;51.548;5.688;2023-04-03T16:48:10;5.22;;;1.75;;
73850;SDS011;62190;51.548;5.688;2023-04-03T16:50:40;2.10;;;0.75;;
73850;SDS011;62190;51.548;5.688;2023-04-03T16:53:09;4.12;;;1.05;;
73850;SDS011;62190;51.548;5.688;2023-04-03T16:55:37;2.87;;;0.90;;
73850;SDS011;62190;51.548;5.688;2023-04-03T16:58:14;3.25;;;0.95;;
73850;SDS011;62190;51.548;5.688;2023-04-03T17:00:37;2.15;;;0.62;;
73850;SDS011;62190;51.548;5.688;2023-04-03T17:03:04;4.00;;;1.00;;
73850;SDS011;62190;51.548;5.688;2023-04-03T17:05:33;5.05;;;1.45;;
73850;SDS011;62190;51.548;5.688;2023-04-03T17:08:08;2.72;;;0.80;;
73850;SDS011;62190;51.548;5.688;2023-04-03T17:10:37;4.15;;;0.85;;
73850;SDS011;62190;51.548;5.688;2023-04-03T17:13:09;3.77;;;0.85;;
73850;SDS011;62190;51.548;5.688;2023-04-03T17:15:37;3.90;;;1.00;;
73850;SDS011;62190;51.548;5.688;2023-04-03T17:18:08;3.50;;;1.05;;
73850;SDS011;62190;51.548;5.688;2023-04-03T17:20:45;4.53;;;0.80;;
73850;SDS011;62190;51.548;5.688;2023-04-03T17:23:06;3.25;;;0.93;;
73850;SDS011;62190;51.548;5.688;2023-04-03T17:25:34;3.27;;;0.90;;
73850;SDS011;62190;51.548;5.688;2023-04-03T17:28:01;3.50;;;1.52;;
73850;SDS011;62190;51.548;5.688;2023-04-03T17:30:28;4.33;;;0.80;;
73850;SDS011;62190;51.548;5.688;2023-04-03T17:32:59;7.17;;;0.88;;
73850;SDS011;62190;51.548;5.688;2023-04-03T17:35:26;4.05;;;1.22;;
73850;SDS011;62190;51.548;5.688;2023-04-03T17:37:55;4.12;;;0.93;;
73850;SDS011;62190;51.548;5.688;2023-04-03T17:40:22;4.08;;;1.57;;
73850;SDS011;62190;51.548;5.688;2023-04-03T17:42:50;4.20;;;0.80;;